createdAt,value
2022-09-16T00:03:36.218Z,72.20
2022-09-16T00:08:40.463Z,69.82
2022-09-16T00:13:42.526Z,71.91
2022-09-16T00:18:44.527Z,68.86
2022-09-16T00:23:46.666Z,71.70
2022-09-16T00:28:49.818Z,69.52
2022-09-16T00:33:51.844Z,72.34
2022-09-16T00:38:57.818Z,73.11
2022-09-16T00:44:24.935Z,73.05
2022-09-16T00:49:31.217Z,72.87
2022-09-16T00:54:36.245Z,73.46
2022-09-16T00:59:46.226Z,72.64
2022-09-16T01:04:56.571Z,72.56
2022-09-16T01:09:59.077Z,72.12
2022-09-16T01:15:02.730Z,71.48
2022-09-16T01:20:14.875Z,72.55
2022-09-16T01:25:41.306Z,72.34
2022-09-16T01:31:14.351Z,72.08
2022-09-16T01:36:53.589Z,72.62
2022-09-16T01:42:26.243Z,72.15
2022-09-16T01:47:28.339Z,72.78
2022-09-16T01:52:37.114Z,69.74
2022-09-16T01:57:58.041Z,73.03
2022-09-16T02:03:10.862Z,72.78
2022-09-16T02:08:18.257Z,73.08
2022-09-16T02:13:35.117Z,73.23
2022-09-16T02:18:41.890Z,73.95
2022-09-16T02:23:49.502Z,73.23
2022-09-16T02:28:54.962Z,73.93
2022-09-16T02:34:02.896Z,73.13
2022-09-16T02:39:09.874Z,73.17
2022-09-16T02:44:12.333Z,73.20
2022-09-16T02:49:32.792Z,72.93
2022-09-16T02:55:01.243Z,73.16
2022-09-16T03:00:04.782Z,73.12
2022-09-16T03:05:07.284Z,72.69
2022-09-16T03:10:12.213Z,73.36
2022-09-16T03:15:46.969Z,71.90
2022-09-16T03:20:59.036Z,72.23
2022-09-16T03:26:24.051Z,70.45
2022-09-16T03:31:44.793Z,71.98
2022-09-16T03:36:52.795Z,71.76
2022-09-16T03:41:55.682Z,71.33
2022-09-16T03:46:57.722Z,71.33
2022-09-16T03:52:00.454Z,69.56
2022-09-16T03:57:02.596Z,70.36
2022-09-16T04:02:04.736Z,70.63
2022-09-16T04:07:06.654Z,69.19
2022-09-16T04:12:08.998Z,70.33
2022-09-16T04:17:11.005Z,70.21
2022-09-16T04:22:12.944Z,69.39
2022-09-16T04:27:14.953Z,69.45
2022-09-16T04:32:16.867Z,68.84
2022-09-16T04:37:19.077Z,69.01
2022-09-16T04:42:21.110Z,69.71
2022-09-16T04:47:23.046Z,68.69
2022-09-16T04:52:25.092Z,69.10
2022-09-16T04:57:31.564Z,69.00
2022-09-16T05:02:33.665Z,69.25
2022-09-16T05:07:35.770Z,68.57
2022-09-16T05:12:38.275Z,67.60
2022-09-16T05:17:50.931Z,66.81
2022-09-16T05:22:53.253Z,68.11
2022-09-16T05:27:55.244Z,67.41
2022-09-16T05:32:57.346Z,67.79
2022-09-16T05:37:59.808Z,68.56
2022-09-16T05:43:01.972Z,68.39
2022-09-16T05:48:04.091Z,68.49
2022-09-16T05:53:06.133Z,68.38
2022-09-16T05:58:08.051Z,67.16
2022-09-16T06:03:11.048Z,67.78
2022-09-16T06:08:13.070Z,66.93
2022-09-16T06:13:15.016Z,66.50
2022-09-16T06:18:19.071Z,65.99
2022-09-16T06:23:22.216Z,66.51
2022-09-16T06:28:24.279Z,66.17
2022-09-16T06:33:26.165Z,65.44
2022-09-16T06:38:28.199Z,65.93
2022-09-16T06:43:30.599Z,65.68
2022-09-16T06:48:33.998Z,65.27
2022-09-16T06:53:36.824Z,65.00
2022-09-16T06:58:42.519Z,64.68
2022-09-16T07:03:47.740Z,64.88
2022-09-16T07:08:50.378Z,64.20
2022-09-16T07:13:52.497Z,62.99
2022-09-16T07:19:00.709Z,61.31
2022-09-16T07:24:04.007Z,60.87
2022-09-16T07:29:07.921Z,60.94
2022-09-16T07:34:12.114Z,60.71
2022-09-16T07:39:16.559Z,61.07
2022-09-16T07:44:20.579Z,61.27
2022-09-16T07:49:22.636Z,61.37
2022-09-16T07:54:24.633Z,61.47
2022-09-16T07:59:26.720Z,57.35
2022-09-16T08:04:28.814Z,54.42
2022-09-16T08:09:41.100Z,53.06
2022-09-16T08:14:44.619Z,52.91
2022-09-16T08:19:46.688Z,53.54
2022-09-16T08:24:48.808Z,53.56
2022-09-16T08:29:50.840Z,53.17
2022-09-16T08:34:53.482Z,52.41
2022-09-16T08:39:55.624Z,51.56
2022-09-16T08:45:16.143Z,50.55
2022-09-16T08:50:31.865Z,49.84
2022-09-16T08:55:39.869Z,49.47
2022-09-16T09:00:47.454Z,49.44
2022-09-16T09:05:58.825Z,49.78
2022-09-16T09:11:06.570Z,48.58
2022-09-16T09:16:14.648Z,48.75
2022-09-16T09:21:28.899Z,48.58
2022-09-16T09:26:41.029Z,49.72
2022-09-16T09:32:11.097Z,50.02
2022-09-16T09:37:38.499Z,49.13
2022-09-16T09:42:59.543Z,49.40
2022-09-16T09:48:19.177Z,48.87
2022-09-16T09:53:28.797Z,48.16
2022-09-16T09:58:41.331Z,47.54
2022-09-16T10:03:45.376Z,46.54
2022-09-16T10:08:52.251Z,47.01
2022-09-16T10:14:00.106Z,47.74
2022-09-16T10:19:09.043Z,49.01
2022-09-16T10:24:41.062Z,49.03
2022-09-16T10:29:43.289Z,48.90
2022-09-16T10:34:46.617Z,49.23
2022-09-16T10:39:57.284Z,49.98
2022-09-16T10:45:14.386Z,50.46
2022-09-16T10:50:18.999Z,50.15
2022-09-16T10:55:35.381Z,50.37
2022-09-16T11:00:49.027Z,50.30
2022-09-16T11:06:35.723Z,49.99
2022-09-16T11:11:59.421Z,50.51
2022-09-16T11:17:49.727Z,50.04
2022-09-16T11:23:29.796Z,50.46
2022-09-16T11:29:07.231Z,50.79
2022-09-16T11:34:25.233Z,52.03
2022-09-16T11:39:41.429Z,54.59
2022-09-16T11:44:44.400Z,55.15
2022-09-16T11:50:05.251Z,53.08
2022-09-16T11:55:50.760Z,55.84
2022-09-16T12:00:56.329Z,55.82
2022-09-16T12:06:11.355Z,55.95
2022-09-16T12:11:16.276Z,56.59
2022-09-16T12:16:28.161Z,57.71
2022-09-16T12:21:36.144Z,59.76
2022-09-16T12:26:43.449Z,60.90
2022-09-16T12:32:15.993Z,62.37
2022-09-16T12:37:42.868Z,63.66
2022-09-16T12:43:19.742Z,65.81
2022-09-16T12:48:28.771Z,66.96
2022-09-16T12:53:49.719Z,68.05
2022-09-16T12:58:51.769Z,71.37
2022-09-16T13:04:13.786Z,72.14
2022-09-16T13:09:24.566Z,74.12
2022-09-16T13:14:33.585Z,74.36
2022-09-16T13:19:53.939Z,75.23
2022-09-16T13:25:09.915Z,76.36
2022-09-16T13:30:15.477Z,76.83
2022-09-16T13:35:21.009Z,77.07
2022-09-16T13:40:26.262Z,75.77
2022-09-16T13:45:43.840Z,75.09
2022-09-16T13:50:56.379Z,76.03
2022-09-16T13:56:31.732Z,76.01
2022-09-16T14:02:06.248Z,76.21
2022-09-16T14:07:08.420Z,76.38
2022-09-16T14:12:17.147Z,75.39
2022-09-16T14:17:41.235Z,76.38
2022-09-16T14:22:44.720Z,77.30
2022-09-16T14:27:47.068Z,76.76
2022-09-16T14:32:49.922Z,77.16
2022-09-16T14:37:57.052Z,76.71
2022-09-16T14:43:04.699Z,77.64
2022-09-16T14:48:10.048Z,78.14
2022-09-16T14:53:36.327Z,78.30
2022-09-16T14:58:40.006Z,78.59
2022-09-16T15:03:42.196Z,78.74
2022-09-16T15:08:57.350Z,78.46
2022-09-16T15:14:00.080Z,79.11
2022-09-16T15:19:04.919Z,78.70
2022-09-16T15:24:18.192Z,78.54
2022-09-16T15:29:23.602Z,78.88
2022-09-16T15:34:26.728Z,79.07
2022-09-16T15:39:39.417Z,78.96
2022-09-16T15:44:56.642Z,79.25
2022-09-16T15:49:59.310Z,79.19
2022-09-16T15:55:05.682Z,79.51
2022-09-16T16:00:16.119Z,79.44
2022-09-16T16:05:24.808Z,80.02
2022-09-16T16:10:32.694Z,80.00
2022-09-16T16:15:37.038Z,79.76
2022-09-16T16:20:40.646Z,79.69
2022-09-16T16:25:43.826Z,80.41
2022-09-16T16:30:46.552Z,79.93
2022-09-16T16:35:48.968Z,80.52
2022-09-16T16:40:52.062Z,80.30
2022-09-16T16:45:56.039Z,80.28
2022-09-16T16:51:00.838Z,80.54
2022-09-16T16:56:15.131Z,80.24
2022-09-16T17:01:20.335Z,80.40
2022-09-16T17:06:22.931Z,80.19
2022-09-16T17:11:26.606Z,80.47
2022-09-16T17:16:30.935Z,80.41
2022-09-16T17:21:34.698Z,80.37
2022-09-16T17:26:37.032Z,80.46
2022-09-16T17:31:40.155Z,80.56
2022-09-16T17:36:45.240Z,80.96
2022-09-16T17:41:49.127Z,80.26
2022-09-16T17:46:51.575Z,79.96
2022-09-16T17:51:54.051Z,80.29
2022-09-16T17:56:56.406Z,80.24
2022-09-16T18:01:59.457Z,80.24
2022-09-16T18:07:02.001Z,79.95
2022-09-16T18:12:04.463Z,79.74
2022-09-16T18:17:06.677Z,79.62
2022-09-16T18:22:09.229Z,79.92
2022-09-16T18:27:12.135Z,79.87
2022-09-16T18:32:14.790Z,79.77
2022-09-16T18:37:17.076Z,79.11
2022-09-16T18:42:19.273Z,79.25
2022-09-16T18:47:21.413Z,79.91
2022-09-16T18:52:23.586Z,79.87
2022-09-16T18:57:26.253Z,79.66
2022-09-16T19:02:28.741Z,79.67
2022-09-16T19:07:30.962Z,79.67
2022-09-16T19:12:38.463Z,79.93
2022-09-16T19:17:41.444Z,79.99
2022-09-16T19:22:44.141Z,80.36
2022-09-16T19:27:46.439Z,80.06
2022-09-16T19:32:50.850Z,80.02
2022-09-16T19:37:53.066Z,79.85
2022-09-16T19:42:55.471Z,80.29
2022-09-16T19:47:57.586Z,79.97
2022-09-16T19:53:00.251Z,80.05
2022-09-16T19:58:02.831Z,80.31
2022-09-16T20:03:05.181Z,80.33
2022-09-16T20:08:07.501Z,80.36
2022-09-16T20:13:09.680Z,80.23
2022-09-16T20:18:11.640Z,78.90
2022-09-16T20:23:13.692Z,79.43
2022-09-16T20:28:15.648Z,78.58
2022-09-16T20:33:17.678Z,79.79
2022-09-16T20:38:19.703Z,78.62
2022-09-16T20:43:21.745Z,79.62
2022-09-16T20:48:23.829Z,78.47
2022-09-16T20:53:25.896Z,80.10
2022-09-16T20:58:28.214Z,78.55
2022-09-16T21:03:30.295Z,79.64
2022-09-16T21:08:34.232Z,78.42
2022-09-16T21:13:36.519Z,80.00
2022-09-16T21:18:39.177Z,78.85
2022-09-16T21:23:41.868Z,80.07
2022-09-16T21:28:45.109Z,80.04
2022-09-16T21:33:49.785Z,80.72
2022-09-16T21:38:52.142Z,80.71
2022-09-16T21:43:55.964Z,81.04
2022-09-16T21:49:01.261Z,81.25
2022-09-16T21:54:08.844Z,81.15
2022-09-16T21:59:11.451Z,80.85
2022-09-16T22:04:19.087Z,80.34
2022-09-16T22:09:21.683Z,79.97
2022-09-16T22:14:24.699Z,79.92
2022-09-16T22:19:26.649Z,78.84
2022-09-16T22:24:29.740Z,79.30
2022-09-16T22:29:31.802Z,78.32
2022-09-16T22:34:35.426Z,78.76
2022-09-16T22:39:37.508Z,79.26
2022-09-16T22:44:39.414Z,78.51
2022-09-16T22:49:41.507Z,79.47
2022-09-16T22:54:43.460Z,78.11
2022-09-16T22:59:45.541Z,79.64
2022-09-16T23:04:47.539Z,78.46
2022-09-16T23:09:49.642Z,79.22
2022-09-16T23:14:51.715Z,79.61
2022-09-16T23:19:54.566Z,78.41
2022-09-16T23:24:56.710Z,79.96
2022-09-16T23:29:58.779Z,79.94
2022-09-16T23:35:00.746Z,78.73
2022-09-16T23:40:04.179Z,79.40
2022-09-16T23:45:06.864Z,79.91
2022-09-16T23:50:11.442Z,79.96
2022-09-16T23:55:13.566Z,79.87
